sensor_id;sensor_type;location;lat;lon;timestamp;temperature;humidity
70336;SHT31;57756;47.408;18.940;2024-02-28T00:01:31;10.17;96.13
70336;SHT31;57756;47.408;18.940;2024-02-28T00:03:56;10.17;96.20
70336;SHT31;57756;47.408;18.940;2024-02-28T00:06:22;10.14;96.32
70336;SHT31;57756;47.408;18.940;2024-02-28T00:08:47;10.12;96.34
70336;SHT31;57756;47.408;18.940;2024-02-28T00:11:13;10.14;96.16
70336;SHT31;57756;47.408;18.940;2024-02-28T00:13:39;10.12;96.49
70336;SHT31;57756;47.408;18.940;2024-02-28T00:16:05;10.11;96.87
70336;SHT31;57756;47.408;18.940;2024-02-28T00:18:30;10.08;96.81
70336;SHT31;57756;47.408;18.940;2024-02-28T00:20:56;10.05;96.81
70336;SHT31;57756;47.408;18.940;2024-02-28T00:23:22;10.07;96.76
70336;SHT31;57756;47.408;18.940;2024-02-28T00:25:47;10.04;96.67
70336;SHT31;57756;47.408;18.940;2024-02-28T00:28:12;10.05;96.75
70336;SHT31;57756;47.408;18.940;2024-02-28T00:30:38;10.03;96.87
70336;SHT31;57756;47.408;18.940;2024-02-28T00:33:03;10.00;96.49
70336;SHT31;57756;47.408;18.940;2024-02-28T00:35:32;10.03;96.55
70336;SHT31;57756;47.408;18.940;2024-02-28T00:37:59;10.01;96.09
70336;SHT31;57756;47.408;18.940;2024-02-28T00:40:24;10.04;96.05
70336;SHT31;57756;47.408;18.940;2024-02-28T00:42:50;10.04;96.38
70336;SHT31;57756;47.408;18.940;2024-02-28T00:45:16;10.01;96.63
70336;SHT31;57756;47.408;18.940;2024-02-28T00:47:41;10.01;96.74
70336;SHT31;57756;47.408;18.940;2024-02-28T00:50:07;10.01;97.22
70336;SHT31;57756;47.408;18.940;2024-02-28T00:52:33;9.98;97.23
70336;SHT31;57756;47.408;18.940;2024-02-28T00:54:58;9.95;97.21
70336;SHT31;57756;47.408;18.940;2024-02-28T00:57:25;9.95;97.34
70336;SHT31;57756;47.408;18.940;2024-02-28T00:59:50;9.97;97.32
70336;SHT31;57756;47.408;18.940;2024-02-28T01:02:15;9.94;97.23
70336;SHT31;57756;47.408;18.940;2024-02-28T01:04:41;9.93;97.42
70336;SHT31;57756;47.408;18.940;2024-02-28T01:07:07;9.93;97.50
70336;SHT31;57756;47.408;18.940;2024-02-28T01:09:32;9.91;97.51
70336;SHT31;57756;47.408;18.940;2024-02-28T01:11:58;9.91;97.39
70336;SHT31;57756;47.408;18.940;2024-02-28T01:14:23;9.89;97.43
70336;SHT31;57756;47.408;18.940;2024-02-28T01:16:49;9.90;97.42
70336;SHT31;57756;47.408;18.940;2024-02-28T01:19:15;9.86;97.26
70336;SHT31;57756;47.408;18.940;2024-02-28T01:21:41;9.89;97.10
70336;SHT31;57756;47.408;18.940;2024-02-28T01:24:06;9.86;96.89
70336;SHT31;57756;47.408;18.940;2024-02-28T01:26:32;9.86;96.48
70336;SHT31;57756;47.408;18.940;2024-02-28T01:28:57;9.84;96.42
70336;SHT31;57756;47.408;18.940;2024-02-28T01:31:22;9.87;96.71
70336;SHT31;57756;47.408;18.940;2024-02-28T01:33:48;9.86;97.16
70336;SHT31;57756;47.408;18.940;2024-02-28T01:36:13;9.83;97.32
70336;SHT31;57756;47.408;18.940;2024-02-28T01:38:39;9.82;97.28
70336;SHT31;57756;47.408;18.940;2024-02-28T01:41:04;9.79;97.28
70336;SHT31;57756;47.408;18.940;2024-02-28T01:43:31;9.79;97.69
70336;SHT31;57756;47.408;18.940;2024-02-28T01:45:57;9.77;97.76
70336;SHT31;57756;47.408;18.940;2024-02-28T01:48:25;9.73;97.87
70336;SHT31;57756;47.408;18.940;2024-02-28T01:50:50;9.73;98.13
70336;SHT31;57756;47.408;18.940;2024-02-28T01:53:16;9.70;98.06
70336;SHT31;57756;47.408;18.940;2024-02-28T01:55:42;9.69;98.25
70336;SHT31;57756;47.408;18.940;2024-02-28T01:58:07;9.66;98.45
70336;SHT31;57756;47.408;18.940;2024-02-28T02:00:33;9.64;98.46
70336;SHT31;57756;47.408;18.940;2024-02-28T02:03:02;9.62;98.53
70336;SHT31;57756;47.408;18.940;2024-02-28T02:05:28;9.56;98.69
70336;SHT31;57756;47.408;18.940;2024-02-28T02:07:53;9.53;98.77
70336;SHT31;57756;47.408;18.940;2024-02-28T02:10:20;9.50;98.76
70336;SHT31;57756;47.408;18.940;2024-02-28T02:12:46;9.49;98.79
70336;SHT31;57756;47.408;18.940;2024-02-28T02:15:11;9.47;98.84
70336;SHT31;57756;47.408;18.940;2024-02-28T02:17:37;9.46;98.83
70336;SHT31;57756;47.408;18.940;2024-02-28T02:20:02;9.43;99.25
70336;SHT31;57756;47.408;18.940;2024-02-28T02:22:39;9.39;99.20
70336;SHT31;57756;47.408;18.940;2024-02-28T02:25:05;9.40;98.60
70336;SHT31;57756;47.408;18.940;2024-02-28T02:27:31;9.39;98.78
70336;SHT31;57756;47.408;18.940;2024-02-28T02:29:56;9.36;98.71
70336;SHT31;57756;47.408;18.940;2024-02-28T02:32:22;9.36;98.87
70336;SHT31;57756;47.408;18.940;2024-02-28T02:34:47;9.35;98.99
70336;SHT31;57756;47.408;18.940;2024-02-28T02:37:13;9.32;99.25
70336;SHT31;57756;47.408;18.940;2024-02-28T02:39:38;9.31;98.99
70336;SHT31;57756;47.408;18.940;2024-02-28T02:42:03;9.32;98.28
70336;SHT31;57756;47.408;18.940;2024-02-28T02:44:29;9.32;98.52
70336;SHT31;57756;47.408;18.940;2024-02-28T02:46:54;9.36;97.82
70336;SHT31;57756;47.408;18.940;2024-02-28T02:49:20;9.36;97.52
70336;SHT31;57756;47.408;18.940;2024-02-28T02:51:45;9.39;97.38
70336;SHT31;57756;47.408;18.940;2024-02-28T02:54:11;9.46;96.83
70336;SHT31;57756;47.408;18.940;2024-02-28T02:56:36;9.42;96.93
70336;SHT31;57756;47.408;18.940;2024-02-28T02:59:02;9.45;97.25
70336;SHT31;57756;47.408;18.940;2024-02-28T03:01:27;9.45;96.82
70336;SHT31;57756;47.408;18.940;2024-02-28T03:03:53;9.47;96.10
70336;SHT31;57756;47.408;18.940;2024-02-28T03:06:18;9.50;96.03
70336;SHT31;57756;47.408;18.940;2024-02-28T03:08:44;9.49;96.22
70336;SHT31;57756;47.408;18.940;2024-02-28T03:11:09;9.50;96.44
70336;SHT31;57756;47.408;18.940;2024-02-28T03:13:34;9.49;96.59
70336;SHT31;57756;47.408;18.940;2024-02-28T03:16:00;9.47;96.55
70336;SHT31;57756;47.408;18.940;2024-02-28T03:18:25;9.49;96.65
70336;SHT31;57756;47.408;18.940;2024-02-28T03:20:51;9.42;97.55
70336;SHT31;57756;47.408;18.940;2024-02-28T03:23:16;9.43;97.76
70336;SHT31;57756;47.408;18.940;2024-02-28T03:25:42;9.43;97.48
70336;SHT31;57756;47.408;18.940;2024-02-28T03:28:07;9.39;97.64
70336;SHT31;57756;47.408;18.940;2024-02-28T03:30:33;9.38;97.88
70336;SHT31;57756;47.408;18.940;2024-02-28T03:32:58;9.35;97.95
70336;SHT31;57756;47.408;18.940;2024-02-28T03:35:24;9.36;97.87
70336;SHT31;57756;47.408;18.940;2024-02-28T03:37:49;9.36;97.93
70336;SHT31;57756;47.408;18.940;2024-02-28T03:40:15;9.34;98.15
70336;SHT31;57756;47.408;18.940;2024-02-28T03:42:40;9.31;97.71
70336;SHT31;57756;47.408;18.940;2024-02-28T03:45:06;9.32;97.74
70336;SHT31;57756;47.408;18.940;2024-02-28T03:47:31;9.32;97.65
70336;SHT31;57756;47.408;18.940;2024-02-28T03:49:57;9.38;95.85
70336;SHT31;57756;47.408;18.940;2024-02-28T03:52:23;9.38;95.80
70336;SHT31;57756;47.408;18.940;2024-02-28T03:54:48;9.42;95.47
70336;SHT31;57756;47.408;18.940;2024-02-28T03:57:14;9.42;95.74
70336;SHT31;57756;47.408;18.940;2024-02-28T03:59:43;9.43;96.30
70336;SHT31;57756;47.408;18.940;2024-02-28T04:02:09;9.40;96.86
70336;SHT31;57756;47.408;18.940;2024-02-28T04:04:35;9.38;96.92
70336;SHT31;57756;47.408;18.940;2024-02-28T04:07:00;9.39;96.92
70336;SHT31;57756;47.408;18.940;2024-02-28T04:09:26;9.38;97.01
70336;SHT31;57756;47.408;18.940;2024-02-28T04:11:51;9.47;94.69
70336;SHT31;57756;47.408;18.940;2024-02-28T04:14:16;9.47;94.98
70336;SHT31;57756;47.408;18.940;2024-02-28T04:16:43;9.43;95.29
70336;SHT31;57756;47.408;18.940;2024-02-28T04:19:12;9.43;94.89
70336;SHT31;57756;47.408;18.940;2024-02-28T04:21:37;9.60;94.00
70336;SHT31;57756;47.408;18.940;2024-02-28T04:24:06;9.70;93.11
70336;SHT31;57756;47.408;18.940;2024-02-28T04:26:32;9.72;93.04
70336;SHT31;57756;47.408;18.940;2024-02-28T04:28:57;9.77;92.95
70336;SHT31;57756;47.408;18.940;2024-02-28T04:31:24;9.82;92.64
70336;SHT31;57756;47.408;18.940;2024-02-28T04:33:49;9.82;92.49
70336;SHT31;57756;47.408;18.940;2024-02-28T04:36:15;9.77;92.54
70336;SHT31;57756;47.408;18.940;2024-02-28T04:38:41;9.73;92.97
70336;SHT31;57756;47.408;18.940;2024-02-28T04:41:07;9.74;92.70
70336;SHT31;57756;47.408;18.940;2024-02-28T04:43:32;9.77;92.17
70336;SHT31;57756;47.408;18.940;2024-02-28T04:45:57;9.72;92.66
70336;SHT31;57756;47.408;18.940;2024-02-28T04:48:23;9.82;91.94
70336;SHT31;57756;47.408;18.940;2024-02-28T04:50:48;9.84;91.85
70336;SHT31;57756;47.408;18.940;2024-02-28T04:53:13;9.83;92.10
70336;SHT31;57756;47.408;18.940;2024-02-28T04:55:39;9.89;91.76
70336;SHT31;57756;47.408;18.940;2024-02-28T04:58:04;9.83;92.24
70336;SHT31;57756;47.408;18.940;2024-02-28T05:00:30;9.82;92.06
70336;SHT31;57756;47.408;18.940;2024-02-28T05:02:55;9.74;92.39
70336;SHT31;57756;47.408;18.940;2024-02-28T05:05:21;9.73;92.87
70336;SHT31;57756;47.408;18.940;2024-02-28T05:07:46;9.66;93.05
70336;SHT31;57756;47.408;18.940;2024-02-28T05:10:12;9.63;93.38
70336;SHT31;57756;47.408;18.940;2024-02-28T05:12:37;9.66;93.02
70336;SHT31;57756;47.408;18.940;2024-02-28T05:15:03;9.60;93.45
70336;SHT31;57756;47.408;18.940;2024-02-28T05:17:29;9.59;93.59
70336;SHT31;57756;47.408;18.940;2024-02-28T05:19:54;9.56;93.58
70336;SHT31;57756;47.408;18.940;2024-02-28T05:22:20;9.52;94.12
70336;SHT31;57756;47.408;18.940;2024-02-28T05:24:46;9.52;93.96
70336;SHT31;57756;47.408;18.940;2024-02-28T05:27:11;9.45;95.15
70336;SHT31;57756;47.408;18.940;2024-02-28T05:29:36;9.43;95.21
70336;SHT31;57756;47.408;18.940;2024-02-28T05:32:02;9.40;95.38
70336;SHT31;57756;47.408;18.940;2024-02-28T05:34:28;9.38;95.43
70336;SHT31;57756;47.408;18.940;2024-02-28T05:36:53;9.35;95.85
70336;SHT31;57756;47.408;18.940;2024-02-28T05:39:19;9.32;95.30
70336;SHT31;57756;47.408;18.940;2024-02-28T05:41:44;9.35;94.81
70336;SHT31;57756;47.408;18.940;2024-02-28T05:44:09;9.38;94.68
70336;SHT31;57756;47.408;18.940;2024-02-28T05:46:35;9.35;94.59
70336;SHT31;57756;47.408;18.940;2024-02-28T05:49:03;9.35;94.88
70336;SHT31;57756;47.408;18.940;2024-02-28T05:51:28;9.40;94.46
70336;SHT31;57756;47.408;18.940;2024-02-28T05:53:54;9.38;94.87
70336;SHT31;57756;47.408;18.940;2024-02-28T05:56:19;9.42;93.94
70336;SHT31;57756;47.408;18.940;2024-02-28T05:58:46;9.45;94.03
70336;SHT31;57756;47.408;18.940;2024-02-28T06:01:12;9.50;93.69
70336;SHT31;57756;47.408;18.940;2024-02-28T06:03:38;9.53;93.45
70336;SHT31;57756;47.408;18.940;2024-02-28T06:06:04;9.55;93.47
70336;SHT31;57756;47.408;18.940;2024-02-28T06:08:33;9.52;93.64
70336;SHT31;57756;47.408;18.940;2024-02-28T06:10:59;9.55;93.61
70336;SHT31;57756;47.408;18.940;2024-02-28T06:13:24;9.60;93.24
70336;SHT31;57756;47.408;18.940;2024-02-28T06:15:49;9.62;93.10
70336;SHT31;57756;47.408;18.940;2024-02-28T06:18:15;9.69;92.77
70336;SHT31;57756;47.408;18.940;2024-02-28T06:20:40;9.69;92.76
70336;SHT31;57756;47.408;18.940;2024-02-28T06:23:05;9.70;92.68
70336;SHT31;57756;47.408;18.940;2024-02-28T06:25:31;9.72;92.51
70336;SHT31;57756;47.408;18.940;2024-02-28T06:27:59;9.73;92.44
70336;SHT31;57756;47.408;18.940;2024-02-28T06:30:25;9.80;92.01
70336;SHT31;57756;47.408;18.940;2024-02-28T06:32:50;9.79;92.17
70336;SHT31;57756;47.408;18.940;2024-02-28T06:35:15;9.77;92.18
70336;SHT31;57756;47.408;18.940;2024-02-28T06:37:41;9.74;92.71
70336;SHT31;57756;47.408;18.940;2024-02-28T06:40:09;9.82;92.21
70336;SHT31;57756;47.408;18.940;2024-02-28T06:42:35;9.87;91.86
70336;SHT31;57756;47.408;18.940;2024-02-28T06:45:02;9.95;91.87
70336;SHT31;57756;47.408;18.940;2024-02-28T06:47:30;10.00;91.51
70336;SHT31;57756;47.408;18.940;2024-02-28T06:49:55;10.07;91.60
70336;SHT31;57756;47.408;18.940;2024-02-28T06:52:20;10.17;91.24
70336;SHT31;57756;47.408;18.940;2024-02-28T06:54:46;10.25;91.75
70336;SHT31;57756;47.408;18.940;2024-02-28T06:57:11;10.31;90.99
70336;SHT31;57756;47.408;18.940;2024-02-28T06:59:38;10.44;91.04
70336;SHT31;57756;47.408;18.940;2024-02-28T07:02:03;10.56;89.72
70336;SHT31;57756;47.408;18.940;2024-02-28T07:04:29;10.70;89.93
70336;SHT31;57756;47.408;18.940;2024-02-28T07:06:55;10.80;89.02
70336;SHT31;57756;47.408;18.940;2024-02-28T07:09:20;10.92;89.06
70336;SHT31;57756;47.408;18.940;2024-02-28T07:11:46;10.97;89.18
70336;SHT31;57756;47.408;18.940;2024-02-28T07:14:11;11.07;88.36
70336;SHT31;57756;47.408;18.940;2024-02-28T07:16:37;11.23;88.03
70336;SHT31;57756;47.408;18.940;2024-02-28T07:19:02;11.34;87.63
70336;SHT31;57756;47.408;18.940;2024-02-28T07:21:28;11.54;87.40
70336;SHT31;57756;47.408;18.940;2024-02-28T07:23:55;11.63;87.07
70336;SHT31;57756;47.408;18.940;2024-02-28T07:26:21;11.72;86.38
70336;SHT31;57756;47.408;18.940;2024-02-28T07:28:47;11.76;86.04
70336;SHT31;57756;47.408;18.940;2024-02-28T07:31:18;11.97;86.01
70336;SHT31;57756;47.408;18.940;2024-02-28T07:33:44;12.14;85.33
70336;SHT31;57756;47.408;18.940;2024-02-28T07:36:09;12.09;84.84
70336;SHT31;57756;47.408;18.940;2024-02-28T07:38:35;12.29;85.15
70336;SHT31;57756;47.408;18.940;2024-02-28T07:41:01;12.31;84.07
70336;SHT31;57756;47.408;18.940;2024-02-28T07:43:27;12.44;84.03
70336;SHT31;57756;47.408;18.940;2024-02-28T07:45:52;12.42;84.31
70336;SHT31;57756;47.408;18.940;2024-02-28T07:48:17;12.51;83.83
70336;SHT31;57756;47.408;18.940;2024-02-28T07:50:46;12.26;83.82
70336;SHT31;57756;47.408;18.940;2024-02-28T07:53:12;12.16;84.27
70336;SHT31;57756;47.408;18.940;2024-02-28T07:55:38;12.20;83.97
70336;SHT31;57756;47.408;18.940;2024-02-28T07:58:07;12.27;84.71
70336;SHT31;57756;47.408;18.940;2024-02-28T08:00:32;12.41;84.13
70336;SHT31;57756;47.408;18.940;2024-02-28T08:03:01;12.54;84.13
70336;SHT31;57756;47.408;18.940;2024-02-28T08:05:26;12.78;83.23
70336;SHT31;57756;47.408;18.940;2024-02-28T08:07:52;12.85;82.49
70336;SHT31;57756;47.408;18.940;2024-02-28T08:10:17;12.91;82.42
70336;SHT31;57756;47.408;18.940;2024-02-28T08:12:43;13.13;82.85
70336;SHT31;57756;47.408;18.940;2024-02-28T08:15:09;13.24;82.21
70336;SHT31;57756;47.408;18.940;2024-02-28T08:17:34;13.53;82.01
70336;SHT31;57756;47.408;18.940;2024-02-28T08:20:00;13.57;81.69
70336;SHT31;57756;47.408;18.940;2024-02-28T08:22:25;13.46;82.13
70336;SHT31;57756;47.408;18.940;2024-02-28T08:24:51;13.32;81.50
70336;SHT31;57756;47.408;18.940;2024-02-28T08:27:17;13.62;82.04
70336;SHT31;57756;47.408;18.940;2024-02-28T08:29:42;13.65;81.16
70336;SHT31;57756;47.408;18.940;2024-02-28T08:32:10;13.83;80.87
70336;SHT31;57756;47.408;18.940;2024-02-28T08:34:36;13.99;80.31
70336;SHT31;57756;47.408;18.940;2024-02-28T08:37:02;14.15;79.75
70336;SHT31;57756;47.408;18.940;2024-02-28T08:39:27;14.13;79.28
70336;SHT31;57756;47.408;18.940;2024-02-28T08:41:53;14.50;79.33
70336;SHT31;57756;47.408;18.940;2024-02-28T08:44:18;15.11;79.00
70336;SHT31;57756;47.408;18.940;2024-02-28T08:46:47;15.06;77.59
70336;SHT31;57756;47.408;18.940;2024-02-28T08:49:13;15.39;76.90
70336;SHT31;57756;47.408;18.940;2024-02-28T08:51:39;15.54;76.13
70336;SHT31;57756;47.408;18.940;2024-02-28T08:54:05;16.04;75.80
70336;SHT31;57756;47.408;18.940;2024-02-28T08:56:31;16.29;75.59
70336;SHT31;57756;47.408;18.940;2024-02-28T08:58:56;16.32;75.15
70336;SHT31;57756;47.408;18.940;2024-02-28T09:01:21;16.11;74.61
70336;SHT31;57756;47.408;18.940;2024-02-28T09:03:47;16.46;74.31
70336;SHT31;57756;47.408;18.940;2024-02-28T09:06:12;16.28;74.08
70336;SHT31;57756;47.408;18.940;2024-02-28T09:08:38;16.15;74.64
70336;SHT31;57756;47.408;18.940;2024-02-28T09:11:03;16.45;73.47
70336;SHT31;57756;47.408;18.940;2024-02-28T09:13:30;16.59;73.70
70336;SHT31;57756;47.408;18.940;2024-02-28T09:15:55;16.87;74.42
70336;SHT31;57756;47.408;18.940;2024-02-28T09:18:21;17.06;73.04
70336;SHT31;57756;47.408;18.940;2024-02-28T09:20:47;16.84;71.77
70336;SHT31;57756;47.408;18.940;2024-02-28T09:23:13;16.99;72.40
70336;SHT31;57756;47.408;18.940;2024-02-28T09:25:39;17.22;71.95
70336;SHT31;57756;47.408;18.940;2024-02-28T09:28:05;17.61;72.43
70336;SHT31;57756;47.408;18.940;2024-02-28T09:30:31;17.65;70.62
70336;SHT31;57756;47.408;18.940;2024-02-28T09:32:56;17.04;71.55
70336;SHT31;57756;47.408;18.940;2024-02-28T09:35:22;17.53;71.39
70336;SHT31;57756;47.408;18.940;2024-02-28T09:37:47;17.83;70.47
70336;SHT31;57756;47.408;18.940;2024-02-28T09:40:13;17.41;71.11
70336;SHT31;57756;47.408;18.940;2024-02-28T09:42:38;17.79;71.01
70336;SHT31;57756;47.408;18.940;2024-02-28T09:45:04;17.86;71.16
70336;SHT31;57756;47.408;18.940;2024-02-28T09:47:31;17.80;70.71
70336;SHT31;57756;47.408;18.940;2024-02-28T09:49:57;17.87;72.38
70336;SHT31;57756;47.408;18.940;2024-02-28T09:52:25;17.76;69.50
70336;SHT31;57756;47.408;18.940;2024-02-28T09:54:53;17.56;70.96
70336;SHT31;57756;47.408;18.940;2024-02-28T09:57:18;17.86;70.32
70336;SHT31;57756;47.408;18.940;2024-02-28T09:59:44;17.83;70.35
70336;SHT31;57756;47.408;18.940;2024-02-28T10:02:10;17.78;69.57
70336;SHT31;57756;47.408;18.940;2024-02-28T10:04:37;17.96;70.05
70336;SHT31;57756;47.408;18.940;2024-02-28T10:07:14;18.11;70.06
70336;SHT31;57756;47.408;18.940;2024-02-28T10:09:43;18.34;69.86
70336;SHT31;57756;47.408;18.940;2024-02-28T10:12:08;18.61;69.61
70336;SHT31;57756;47.408;18.940;2024-02-28T10:14:34;18.38;70.41
70336;SHT31;57756;47.408;18.940;2024-02-28T10:16:59;18.23;69.01
70336;SHT31;57756;47.408;18.940;2024-02-28T10:19:25;18.48;69.13
70336;SHT31;57756;47.408;18.940;2024-02-28T10:21:50;18.54;68.94
70336;SHT31;57756;47.408;18.940;2024-02-28T10:24:16;18.40;69.18
70336;SHT31;57756;47.408;18.940;2024-02-28T10:26:46;18.34;69.55
70336;SHT31;57756;47.408;18.940;2024-02-28T10:29:21;18.04;69.72
70336;SHT31;57756;47.408;18.940;2024-02-28T10:31:46;18.48;70.12
70336;SHT31;57756;47.408;18.940;2024-02-28T10:34:13;18.45;69.64
70336;SHT31;57756;47.408;18.940;2024-02-28T10:36:41;18.48;69.03
70336;SHT31;57756;47.408;18.940;2024-02-28T10:39:08;18.33;68.73
70336;SHT31;57756;47.408;18.940;2024-02-28T10:41:34;18.27;69.70
70336;SHT31;57756;47.408;18.940;2024-02-28T10:44:01;18.38;70.14
70336;SHT31;57756;47.408;18.940;2024-02-28T10:46:27;18.47;70.12
70336;SHT31;57756;47.408;18.940;2024-02-28T10:48:52;18.43;69.46
70336;SHT31;57756;47.408;18.940;2024-02-28T10:51:23;18.04;69.69
70336;SHT31;57756;47.408;18.940;2024-02-28T10:54:11;18.28;70.23
70336;SHT31;57756;47.408;18.940;2024-02-28T10:56:40;18.44;69.89
70336;SHT31;57756;47.408;18.940;2024-02-28T10:59:07;18.47;69.62
70336;SHT31;57756;47.408;18.940;2024-02-28T11:01:37;18.64;69.23
70336;SHT31;57756;47.408;18.940;2024-02-28T11:04:04;18.21;69.47
70336;SHT31;57756;47.408;18.940;2024-02-28T11:06:30;18.01;70.10
70336;SHT31;57756;47.408;18.940;2024-02-28T11:08:59;18.33;69.91
70336;SHT31;57756;47.408;18.940;2024-02-28T11:11:24;18.30;70.12
70336;SHT31;57756;47.408;18.940;2024-02-28T11:13:56;18.49;69.70
70336;SHT31;57756;47.408;18.940;2024-02-28T11:16:32;18.52;70.47
70336;SHT31;57756;47.408;18.940;2024-02-28T11:18:58;18.54;69.91
70336;SHT31;57756;47.408;18.940;2024-02-28T11:21:27;18.28;69.35
70336;SHT31;57756;47.408;18.940;2024-02-28T11:23:59;18.18;70.29
70336;SHT31;57756;47.408;18.940;2024-02-28T11:26:24;18.11;70.01
70336;SHT31;57756;47.408;18.940;2024-02-28T11:28:50;17.97;70.60
70336;SHT31;57756;47.408;18.940;2024-02-28T11:31:16;18.23;71.21
70336;SHT31;57756;47.408;18.940;2024-02-28T11:33:43;18.08;71.33
70336;SHT31;57756;47.408;18.940;2024-02-28T11:36:11;18.23;71.31
70336;SHT31;57756;47.408;18.940;2024-02-28T11:38:38;18.33;71.61
70336;SHT31;57756;47.408;18.940;2024-02-28T11:41:04;18.43;70.30
70336;SHT31;57756;47.408;18.940;2024-02-28T11:43:31;18.31;70.62
70336;SHT31;57756;47.408;18.940;2024-02-28T11:46:00;18.21;70.93
70336;SHT31;57756;47.408;18.940;2024-02-28T11:48:25;18.38;71.16
70336;SHT31;57756;47.408;18.940;2024-02-28T11:50:53;18.40;70.50
70336;SHT31;57756;47.408;18.940;2024-02-28T11:53:19;18.33;70.80
70336;SHT31;57756;47.408;18.940;2024-02-28T11:55:45;18.33;70.82
70336;SHT31;57756;47.408;18.940;2024-02-28T11:58:13;18.37;71.07
70336;SHT31;57756;47.408;18.940;2024-02-28T12:00:48;18.11;70.55
70336;SHT31;57756;47.408;18.940;2024-02-28T12:03:14;17.72;71.17
70336;SHT31;57756;47.408;18.940;2024-02-28T12:05:43;17.63;71.35
70336;SHT31;57756;47.408;18.940;2024-02-28T12:08:10;17.83;70.98
70336;SHT31;57756;47.408;18.940;2024-02-28T12:10:35;18.18;72.25
70336;SHT31;57756;47.408;18.940;2024-02-28T12:13:01;18.28;70.35
70336;SHT31;57756;47.408;18.940;2024-02-28T12:15:29;18.00;70.99
70336;SHT31;57756;47.408;18.940;2024-02-28T12:17:54;18.08;70.95
70336;SHT31;57756;47.408;18.940;2024-02-28T12:20:20;18.20;70.63
70336;SHT31;57756;47.408;18.940;2024-02-28T12:22:45;18.06;70.46
70336;SHT31;57756;47.408;18.940;2024-02-28T12:25:11;17.73;71.41
70336;SHT31;57756;47.408;18.940;2024-02-28T12:27:36;18.08;70.65
70336;SHT31;57756;47.408;18.940;2024-02-28T12:30:02;17.78;70.30
70336;SHT31;57756;47.408;18.940;2024-02-28T12:32:27;17.97;71.10
70336;SHT31;57756;47.408;18.940;2024-02-28T12:34:53;18.21;71.11
70336;SHT31;57756;47.408;18.940;2024-02-28T12:37:19;18.28;70.91
70336;SHT31;57756;47.408;18.940;2024-02-28T12:39:44;18.33;71.57
70336;SHT31;57756;47.408;18.940;2024-02-28T12:42:10;18.44;71.30
70336;SHT31;57756;47.408;18.940;2024-02-28T12:44:35;18.21;69.77
70336;SHT31;57756;47.408;18.940;2024-02-28T12:47:01;18.21;70.45
70336;SHT31;57756;47.408;18.940;2024-02-28T12:49:26;18.24;70.45
70336;SHT31;57756;47.408;18.940;2024-02-28T12:51:52;18.21;70.62
70336;SHT31;57756;47.408;18.940;2024-02-28T12:54:18;18.13;70.38
70336;SHT31;57756;47.408;18.940;2024-02-28T12:56:45;18.10;70.89
70336;SHT31;57756;47.408;18.940;2024-02-28T12:59:12;18.10;70.72
70336;SHT31;57756;47.408;18.940;2024-02-28T13:01:37;18.14;71.69
70336;SHT31;57756;47.408;18.940;2024-02-28T13:04:03;18.24;70.74
70336;SHT31;57756;47.408;18.940;2024-02-28T13:06:29;18.34;71.62
70336;SHT31;57756;47.408;18.940;2024-02-28T13:08:54;18.28;70.53
70336;SHT31;57756;47.408;18.940;2024-02-28T13:11:22;18.28;69.77
70336;SHT31;57756;47.408;18.940;2024-02-28T13:13:51;18.20;70.07
70336;SHT31;57756;47.408;18.940;2024-02-28T13:16:17;18.14;70.59
70336;SHT31;57756;47.408;18.940;2024-02-28T13:18:43;18.14;70.57
70336;SHT31;57756;47.408;18.940;2024-02-28T13:21:10;17.96;71.11
70336;SHT31;57756;47.408;18.940;2024-02-28T13:23:35;18.17;71.13
70336;SHT31;57756;47.408;18.940;2024-02-28T13:26:03;18.06;71.14
70336;SHT31;57756;47.408;18.940;2024-02-28T13:28:29;18.16;70.46
70336;SHT31;57756;47.408;18.940;2024-02-28T13:30:58;18.33;70.51
70336;SHT31;57756;47.408;18.940;2024-02-28T13:33:24;18.30;70.42
70336;SHT31;57756;47.408;18.940;2024-02-28T13:35:50;18.20;70.46
70336;SHT31;57756;47.408;18.940;2024-02-28T13:38:15;18.18;71.59
70336;SHT31;57756;47.408;18.940;2024-02-28T13:40:40;18.21;71.22
70336;SHT31;57756;47.408;18.940;2024-02-28T13:43:10;18.25;69.97
70336;SHT31;57756;47.408;18.940;2024-02-28T13:45:35;18.24;69.77
70336;SHT31;57756;47.408;18.940;2024-02-28T13:48:01;18.31;70.27
70336;SHT31;57756;47.408;18.940;2024-02-28T13:50:27;18.37;69.94
70336;SHT31;57756;47.408;18.940;2024-02-28T13:52:57;18.27;70.03
70336;SHT31;57756;47.408;18.940;2024-02-28T13:55:22;18.30;70.73
70336;SHT31;57756;47.408;18.940;2024-02-28T13:57:48;18.28;70.63
70336;SHT31;57756;47.408;18.940;2024-02-28T14:00:14;18.33;70.91
70336;SHT31;57756;47.408;18.940;2024-02-28T14:02:39;18.25;70.30
70336;SHT31;57756;47.408;18.940;2024-02-28T14:05:05;18.14;70.43
70336;SHT31;57756;47.408;18.940;2024-02-28T14:07:32;18.04;70.18
70336;SHT31;57756;47.408;18.940;2024-02-28T14:09:58;18.11;70.56
70336;SHT31;57756;47.408;18.940;2024-02-28T14:12:24;18.21;71.04
70336;SHT31;57756;47.408;18.940;2024-02-28T14:14:49;18.37;70.71
70336;SHT31;57756;47.408;18.940;2024-02-28T14:17:15;18.30;70.34
70336;SHT31;57756;47.408;18.940;2024-02-28T14:19:40;18.30;70.71
70336;SHT31;57756;47.408;18.940;2024-02-28T14:22:07;18.16;70.78
70336;SHT31;57756;47.408;18.940;2024-02-28T14:24:34;18.07;70.99
70336;SHT31;57756;47.408;18.940;2024-02-28T14:27:04;18.04;71.88
70336;SHT31;57756;47.408;18.940;2024-02-28T14:29:29;18.10;71.67
70336;SHT31;57756;47.408;18.940;2024-02-28T14:31:55;18.00;71.42
70336;SHT31;57756;47.408;18.940;2024-02-28T14:34:20;17.96;71.48
70336;SHT31;57756;47.408;18.940;2024-02-28T14:36:47;17.93;71.56
70336;SHT31;57756;47.408;18.940;2024-02-28T14:39:13;17.90;72.25
70336;SHT31;57756;47.408;18.940;2024-02-28T14:41:42;17.82;70.98
70336;SHT31;57756;47.408;18.940;2024-02-28T14:44:09;17.78;71.87
70336;SHT31;57756;47.408;18.940;2024-02-28T14:46:34;17.65;72.43
70336;SHT31;57756;47.408;18.940;2024-02-28T14:49:00;17.63;72.43
70336;SHT31;57756;47.408;18.940;2024-02-28T14:51:25;17.52;72.04
70336;SHT31;57756;47.408;18.940;2024-02-28T14:53:51;17.41;72.64
70336;SHT31;57756;47.408;18.940;2024-02-28T14:56:16;17.39;72.17
70336;SHT31;57756;47.408;18.940;2024-02-28T14:58:41;17.41;73.03
70336;SHT31;57756;47.408;18.940;2024-02-28T15:01:07;17.32;73.29
70336;SHT31;57756;47.408;18.940;2024-02-28T15:03:32;17.25;73.39
70336;SHT31;57756;47.408;18.940;2024-02-28T15:05:58;17.20;74.12
70336;SHT31;57756;47.408;18.940;2024-02-28T15:08:23;17.18;73.08
70336;SHT31;57756;47.408;18.940;2024-02-28T15:10:49;17.21;73.75
70336;SHT31;57756;47.408;18.940;2024-02-28T15:13:14;17.12;73.86
70336;SHT31;57756;47.408;18.940;2024-02-28T15:15:40;16.93;75.13